sensor_id;sensor_type;location;lat;lon;timestamp;P1;durP1;ratioP1;P2;durP2;ratioP2
18320;SDS011;54904;54.350;18.664;2023-11-21T00:02:21;5.80;;;3.37;;
18320;SDS011;54904;54.350;18.664;2023-11-21T00:04:48;4.63;;;3.13;;
18320;SDS011;54904;54.350;18.664;2023-11-21T00:07:15;5.00;;;3.20;;
18320;SDS011;54904;54.350;18.664;2023-11-21T00:09:44;3.97;;;3.00;;
18320;SDS011;54904;54.350;18.664;2023-11-21T00:12:11;4.90;;;3.23;;
18320;SDS011;54904;54.350;18.664;2023-11-21T00:14:39;4.13;;;3.50;;
18320;SDS011;54904;54.350;18.664;2023-11-21T00:17:06;4.20;;;3.00;;
18320;SDS011;54904;54.350;18.664;2023-11-21T00:19:33;3.87;;;3.33;;
18320;SDS011;54904;54.350;18.664;2023-11-21T00:22:00;3.20;;;2.83;;
18320;SDS011;54904;54.350;18.664;2023-11-21T00:24:27;4.83;;;2.90;;
18320;SDS011;54904;54.350;18.664;2023-11-21T00:26:56;4.43;;;3.33;;
18320;SDS011;54904;54.350;18.664;2023-11-21T00:29:23;4.43;;;3.60;;
18320;SDS011;54904;54.350;18.664;2023-11-21T00:31:51;5.03;;;3.77;;
18320;SDS011;54904;54.350;18.664;2023-11-21T00:34:18;3.57;;;3.10;;
18320;SDS011;54904;54.350;18.664;2023-11-21T00:36:45;3.73;;;2.83;;
18320;SDS011;54904;54.350;18.664;2023-11-21T00:39:12;5.10;;;3.03;;
18320;SDS011;54904;54.350;18.664;2023-11-21T00:41:39;6.23;;;3.37;;
18320;SDS011;54904;54.350;18.664;2023-11-21T00:44:08;3.17;;;2.87;;
18320;SDS011;54904;54.350;18.664;2023-11-21T00:46:35;3.77;;;2.50;;
18320;SDS011;54904;54.350;18.664;2023-11-21T00:49:02;2.40;;;2.10;;
18320;SDS011;54904;54.350;18.664;2023-11-21T00:51:30;2.63;;;1.80;;
18320;SDS011;54904;54.350;18.664;2023-11-21T00:53:58;2.30;;;2.07;;
18320;SDS011;54904;54.350;18.664;2023-11-21T00:56:25;2.17;;;1.97;;
18320;SDS011;54904;54.350;18.664;2023-11-21T00:58:53;2.37;;;2.17;;
18320;SDS011;54904;54.350;18.664;2023-11-21T01:01:21;2.63;;;2.40;;
18320;SDS011;54904;54.350;18.664;2023-11-21T01:03:49;4.00;;;2.73;;
18320;SDS011;54904;54.350;18.664;2023-11-21T01:06:17;6.33;;;3.30;;
18320;SDS011;54904;54.350;18.664;2023-11-21T01:08:44;3.70;;;3.03;;
18320;SDS011;54904;54.350;18.664;2023-11-21T01:11:12;8.30;;;3.40;;
18320;SDS011;54904;54.350;18.664;2023-11-21T01:13:39;4.00;;;3.00;;
18320;SDS011;54904;54.350;18.664;2023-11-21T01:16:07;3.73;;;2.67;;
18320;SDS011;54904;54.350;18.664;2023-11-21T01:18:36;4.40;;;2.93;;
18320;SDS011;54904;54.350;18.664;2023-11-21T01:21:05;2.60;;;2.40;;
18320;SDS011;54904;54.350;18.664;2023-11-21T01:23:32;5.13;;;2.80;;
18320;SDS011;54904;54.350;18.664;2023-11-21T01:26:00;3.30;;;2.77;;
18320;SDS011;54904;54.350;18.664;2023-11-21T01:28:28;3.13;;;2.37;;
18320;SDS011;54904;54.350;18.664;2023-11-21T01:30:56;3.77;;;2.43;;
18320;SDS011;54904;54.350;18.664;2023-11-21T01:33:23;2.53;;;2.30;;
18320;SDS011;54904;54.350;18.664;2023-11-21T01:35:52;4.87;;;2.77;;
18320;SDS011;54904;54.350;18.664;2023-11-21T01:38:19;4.43;;;2.80;;
18320;SDS011;54904;54.350;18.664;2023-11-21T01:40:47;3.93;;;2.90;;
18320;SDS011;54904;54.350;18.664;2023-11-21T01:43:14;2.77;;;2.57;;
18320;SDS011;54904;54.350;18.664;2023-11-21T01:45:42;3.80;;;2.90;;
18320;SDS011;54904;54.350;18.664;2023-11-21T01:48:10;3.07;;;2.53;;
18320;SDS011;54904;54.350;18.664;2023-11-21T01:50:39;4.63;;;2.50;;
18320;SDS011;54904;54.350;18.664;2023-11-21T01:53:10;3.77;;;3.03;;
18320;SDS011;54904;54.350;18.664;2023-11-21T01:55:39;3.87;;;2.83;;
18320;SDS011;54904;54.350;18.664;2023-11-21T01:58:07;2.77;;;2.30;;
18320;SDS011;54904;54.350;18.664;2023-11-21T02:00:36;2.20;;;2.00;;
18320;SDS011;54904;54.350;18.664;2023-11-21T02:03:03;2.70;;;2.13;;
18320;SDS011;54904;54.350;18.664;2023-11-21T02:05:32;3.57;;;2.47;;
18320;SDS011;54904;54.350;18.664;2023-11-21T02:07:59;3.10;;;2.80;;
18320;SDS011;54904;54.350;18.664;2023-11-21T02:10:30;3.63;;;2.90;;
18320;SDS011;54904;54.350;18.664;2023-11-21T02:12:57;5.07;;;2.60;;
18320;SDS011;54904;54.350;18.664;2023-11-21T02:15:26;4.17;;;3.03;;
18320;SDS011;54904;54.350;18.664;2023-11-21T02:17:54;3.93;;;2.43;;
18320;SDS011;54904;54.350;18.664;2023-11-21T02:20:23;3.33;;;2.50;;
18320;SDS011;54904;54.350;18.664;2023-11-21T02:22:53;2.97;;;2.37;;
18320;SDS011;54904;54.350;18.664;2023-11-21T02:25:23;3.50;;;2.60;;
18320;SDS011;54904;54.350;18.664;2023-11-21T02:27:50;2.90;;;2.67;;
18320;SDS011;54904;54.350;18.664;2023-11-21T02:30:19;2.70;;;2.43;;
18320;SDS011;54904;54.350;18.664;2023-11-21T02:32:46;3.13;;;2.30;;
18320;SDS011;54904;54.350;18.664;2023-11-21T02:35:14;3.67;;;2.73;;
18320;SDS011;54904;54.350;18.664;2023-11-21T02:37:42;2.97;;;2.50;;
18320;SDS011;54904;54.350;18.664;2023-11-21T02:40:11;5.07;;;2.30;;
18320;SDS011;54904;54.350;18.664;2023-11-21T02:42:39;2.90;;;2.13;;
18320;SDS011;54904;54.350;18.664;2023-11-21T02:45:06;4.47;;;2.50;;
18320;SDS011;54904;54.350;18.664;2023-11-21T02:47:34;2.50;;;2.30;;
18320;SDS011;54904;54.350;18.664;2023-11-21T02:50:01;2.77;;;1.93;;
18320;SDS011;54904;54.350;18.664;2023-11-21T02:52:29;4.83;;;2.70;;
18320;SDS011;54904;54.350;18.664;2023-11-21T02:54:58;3.10;;;2.63;;
18320;SDS011;54904;54.350;18.664;2023-11-21T02:57:26;2.57;;;2.20;;
18320;SDS011;54904;54.350;18.664;2023-11-21T02:59:53;4.13;;;2.57;;
18320;SDS011;54904;54.350;18.664;2023-11-21T03:02:21;2.87;;;2.10;;
18320;SDS011;54904;54.350;18.664;2023-11-21T03:04:48;2.63;;;2.20;;
18320;SDS011;54904;54.350;18.664;2023-11-21T03:07:15;2.20;;;2.00;;
18320;SDS011;54904;54.350;18.664;2023-11-21T03:09:44;2.20;;;2.00;;
18320;SDS011;54904;54.350;18.664;2023-11-21T03:12:11;2.27;;;1.80;;
18320;SDS011;54904;54.350;18.664;2023-11-21T03:14:40;1.90;;;1.57;;
18320;SDS011;54904;54.350;18.664;2023-11-21T03:17:07;1.83;;;1.60;;
18320;SDS011;54904;54.350;18.664;2023-11-21T03:19:34;1.97;;;1.73;;
18320;SDS011;54904;54.350;18.664;2023-11-21T03:22:01;2.30;;;1.63;;
18320;SDS011;54904;54.350;18.664;2023-11-21T03:24:29;2.00;;;1.80;;
18320;SDS011;54904;54.350;18.664;2023-11-21T03:26:56;2.33;;;2.10;;
18320;SDS011;54904;54.350;18.664;2023-11-21T03:29:23;3.00;;;2.37;;
18320;SDS011;54904;54.350;18.664;2023-11-21T03:31:53;2.50;;;2.20;;
18320;SDS011;54904;54.350;18.664;2023-11-21T03:34:22;2.70;;;2.43;;
18320;SDS011;54904;54.350;18.664;2023-11-21T03:36:49;3.50;;;2.40;;
18320;SDS011;54904;54.350;18.664;2023-11-21T03:39:17;2.80;;;2.13;;
18320;SDS011;54904;54.350;18.664;2023-11-21T03:41:45;2.57;;;1.90;;
18320;SDS011;54904;54.350;18.664;2023-11-21T03:44:12;2.23;;;1.60;;
18320;SDS011;54904;54.350;18.664;2023-11-21T03:46:40;3.00;;;2.17;;
18320;SDS011;54904;54.350;18.664;2023-11-21T03:49:10;3.00;;;2.70;;
18320;SDS011;54904;54.350;18.664;2023-11-21T03:51:37;2.90;;;2.70;;
18320;SDS011;54904;54.350;18.664;2023-11-21T03:54:05;2.93;;;2.57;;
18320;SDS011;54904;54.350;18.664;2023-11-21T03:56:32;4.80;;;2.80;;
18320;SDS011;54904;54.350;18.664;2023-11-21T03:58:59;2.40;;;2.20;;
18320;SDS011;54904;54.350;18.664;2023-11-21T04:01:26;2.37;;;2.17;;
18320;SDS011;54904;54.350;18.664;2023-11-21T04:03:53;2.63;;;2.37;;
18320;SDS011;54904;54.350;18.664;2023-11-21T04:06:23;2.57;;;2.37;;
18320;SDS011;54904;54.350;18.664;2023-11-21T04:08:50;3.23;;;2.27;;
18320;SDS011;54904;54.350;18.664;2023-11-21T04:11:18;6.57;;;2.60;;
18320;SDS011;54904;54.350;18.664;2023-11-21T04:13:45;3.63;;;2.30;;
18320;SDS011;54904;54.350;18.664;2023-11-21T04:16:12;2.23;;;2.03;;
18320;SDS011;54904;54.350;18.664;2023-11-21T04:18:39;2.07;;;1.90;;
18320;SDS011;54904;54.350;18.664;2023-11-21T04:21:06;3.13;;;1.77;;
18320;SDS011;54904;54.350;18.664;2023-11-21T04:23:35;3.43;;;2.60;;
18320;SDS011;54904;54.350;18.664;2023-11-21T04:26:02;2.87;;;2.57;;
18320;SDS011;54904;54.350;18.664;2023-11-21T04:28:29;3.00;;;2.23;;
18320;SDS011;54904;54.350;18.664;2023-11-21T04:30:56;3.23;;;2.40;;
18320;SDS011;54904;54.350;18.664;2023-11-21T04:33:24;2.67;;;2.47;;
18320;SDS011;54904;54.350;18.664;2023-11-21T04:35:51;2.57;;;2.20;;
18320;SDS011;54904;54.350;18.664;2023-11-21T04:38:18;4.37;;;2.80;;
18320;SDS011;54904;54.350;18.664;2023-11-21T04:40:46;2.73;;;2.20;;
18320;SDS011;54904;54.350;18.664;2023-11-21T04:43:13;3.50;;;2.13;;
18320;SDS011;54904;54.350;18.664;2023-11-21T04:45:41;3.50;;;2.50;;
18320;SDS011;54904;54.350;18.664;2023-11-21T04:48:08;2.57;;;2.17;;
18320;SDS011;54904;54.350;18.664;2023-11-21T04:50:35;4.37;;;2.17;;
18320;SDS011;54904;54.350;18.664;2023-11-21T04:53:02;2.73;;;1.90;;
18320;SDS011;54904;54.350;18.664;2023-11-21T04:55:30;2.97;;;2.17;;
18320;SDS011;54904;54.350;18.664;2023-11-21T04:57:59;2.87;;;2.23;;
18320;SDS011;54904;54.350;18.664;2023-11-21T05:00:26;2.10;;;1.90;;
18320;SDS011;54904;54.350;18.664;2023-11-21T05:02:53;2.17;;;1.97;;
18320;SDS011;54904;54.350;18.664;2023-11-21T05:05:20;2.33;;;2.10;;
18320;SDS011;54904;54.350;18.664;2023-11-21T05:07:47;2.03;;;1.87;;
18320;SDS011;54904;54.350;18.664;2023-11-21T05:10:15;2.43;;;2.10;;
18320;SDS011;54904;54.350;18.664;2023-11-21T05:12:42;2.67;;;1.90;;
18320;SDS011;54904;54.350;18.664;2023-11-21T05:15:13;7.10;;;2.60;;
18320;SDS011;54904;54.350;18.664;2023-11-21T05:17:42;3.40;;;2.43;;
18320;SDS011;54904;54.350;18.664;2023-11-21T05:20:11;3.27;;;2.57;;
18320;SDS011;54904;54.350;18.664;2023-11-21T05:22:39;4.60;;;2.90;;
18320;SDS011;54904;54.350;18.664;2023-11-21T05:25:07;4.53;;;2.90;;
18320;SDS011;54904;54.350;18.664;2023-11-21T05:27:34;3.47;;;2.63;;
18320;SDS011;54904;54.350;18.664;2023-11-21T05:30:02;3.77;;;2.53;;
18320;SDS011;54904;54.350;18.664;2023-11-21T05:32:32;5.23;;;3.57;;
18320;SDS011;54904;54.350;18.664;2023-11-21T05:34:59;3.60;;;2.73;;
18320;SDS011;54904;54.350;18.664;2023-11-21T05:37:26;4.40;;;2.67;;
18320;SDS011;54904;54.350;18.664;2023-11-21T05:39:54;3.20;;;2.90;;
18320;SDS011;54904;54.350;18.664;2023-11-21T05:42:23;3.80;;;3.30;;
18320;SDS011;54904;54.350;18.664;2023-11-21T05:44:50;3.57;;;3.03;;
18320;SDS011;54904;54.350;18.664;2023-11-21T05:47:17;4.70;;;3.20;;
18320;SDS011;54904;54.350;18.664;2023-11-21T05:49:45;3.37;;;2.60;;
18320;SDS011;54904;54.350;18.664;2023-11-21T05:52:15;3.80;;;2.70;;
18320;SDS011;54904;54.350;18.664;2023-11-21T05:54:43;3.03;;;2.53;;
18320;SDS011;54904;54.350;18.664;2023-11-21T05:57:10;3.53;;;2.53;;
18320;SDS011;54904;54.350;18.664;2023-11-21T05:59:37;3.33;;;2.50;;
18320;SDS011;54904;54.350;18.664;2023-11-21T06:02:04;3.40;;;2.70;;
18320;SDS011;54904;54.350;18.664;2023-11-21T06:04:33;3.83;;;2.80;;
18320;SDS011;54904;54.350;18.664;2023-11-21T06:07:01;4.77;;;2.87;;
18320;SDS011;54904;54.350;18.664;2023-11-21T06:09:28;2.10;;;2.00;;
18320;SDS011;54904;54.350;18.664;2023-11-21T06:11:55;3.07;;;2.77;;
18320;SDS011;54904;54.350;18.664;2023-11-21T06:14:23;4.07;;;2.67;;
18320;SDS011;54904;54.350;18.664;2023-11-21T06:16:50;4.00;;;3.00;;
18320;SDS011;54904;54.350;18.664;2023-11-21T06:19:18;4.13;;;3.03;;
18320;SDS011;54904;54.350;18.664;2023-11-21T06:21:45;3.07;;;2.30;;
18320;SDS011;54904;54.350;18.664;2023-11-21T06:24:14;2.90;;;2.57;;
18320;SDS011;54904;54.350;18.664;2023-11-21T06:26:42;3.60;;;2.50;;
18320;SDS011;54904;54.350;18.664;2023-11-21T06:29:10;3.07;;;2.73;;
18320;SDS011;54904;54.350;18.664;2023-11-21T06:31:39;5.23;;;3.00;;
18320;SDS011;54904;54.350;18.664;2023-11-21T06:34:08;3.90;;;3.00;;
18320;SDS011;54904;54.350;18.664;2023-11-21T06:36:37;3.47;;;3.17;;
18320;SDS011;54904;54.350;18.664;2023-11-21T06:39:04;3.47;;;2.90;;
18320;SDS011;54904;54.350;18.664;2023-11-21T06:41:35;3.77;;;2.73;;
18320;SDS011;54904;54.350;18.664;2023-11-21T06:44:04;3.63;;;2.60;;
18320;SDS011;54904;54.350;18.664;2023-11-21T06:46:31;3.60;;;2.87;;
18320;SDS011;54904;54.350;18.664;2023-11-21T06:48:58;4.47;;;2.67;;
18320;SDS011;54904;54.350;18.664;2023-11-21T06:51:25;5.33;;;3.63;;
18320;SDS011;54904;54.350;18.664;2023-11-21T06:53:52;4.43;;;3.40;;
18320;SDS011;54904;54.350;18.664;2023-11-21T06:56:19;3.90;;;2.80;;
18320;SDS011;54904;54.350;18.664;2023-11-21T06:58:48;3.77;;;3.40;;
18320;SDS011;54904;54.350;18.664;2023-11-21T07:01:15;3.20;;;2.50;;
18320;SDS011;54904;54.350;18.664;2023-11-21T07:03:42;3.90;;;2.80;;
18320;SDS011;54904;54.350;18.664;2023-11-21T07:06:09;4.40;;;2.60;;
18320;SDS011;54904;54.350;18.664;2023-11-21T07:08:36;9.37;;;3.30;;
18320;SDS011;54904;54.350;18.664;2023-11-21T07:11:03;4.73;;;3.30;;
18320;SDS011;54904;54.350;18.664;2023-11-21T07:13:31;5.87;;;2.93;;
18320;SDS011;54904;54.350;18.664;2023-11-21T07:15:59;3.43;;;2.67;;
18320;SDS011;54904;54.350;18.664;2023-11-21T07:18:26;3.00;;;2.70;;
18320;SDS011;54904;54.350;18.664;2023-11-21T07:20:53;4.90;;;2.87;;
18320;SDS011;54904;54.350;18.664;2023-11-21T07:23:20;4.27;;;3.17;;
18320;SDS011;54904;54.350;18.664;2023-11-21T07:25:48;6.83;;;3.80;;
18320;SDS011;54904;54.350;18.664;2023-11-21T07:28:16;3.67;;;3.03;;
18320;SDS011;54904;54.350;18.664;2023-11-21T07:30:43;4.13;;;3.17;;
18320;SDS011;54904;54.350;18.664;2023-11-21T07:33:11;4.23;;;2.90;;
18320;SDS011;54904;54.350;18.664;2023-11-21T07:35:38;3.37;;;2.07;;
18320;SDS011;54904;54.350;18.664;2023-11-21T07:38:06;3.23;;;2.70;;
18320;SDS011;54904;54.350;18.664;2023-11-21T07:40:33;3.13;;;2.73;;
18320;SDS011;54904;54.350;18.664;2023-11-21T07:43:00;3.93;;;2.93;;
18320;SDS011;54904;54.350;18.664;2023-11-21T07:45:27;3.57;;;2.93;;
18320;SDS011;54904;54.350;18.664;2023-11-21T07:47:54;4.63;;;2.80;;
18320;SDS011;54904;54.350;18.664;2023-11-21T07:50:23;3.90;;;2.60;;
18320;SDS011;54904;54.350;18.664;2023-11-21T07:52:50;4.43;;;2.57;;
18320;SDS011;54904;54.350;18.664;2023-11-21T07:55:19;5.67;;;2.73;;
18320;SDS011;54904;54.350;18.664;2023-11-21T07:57:46;3.83;;;2.43;;
18320;SDS011;54904;54.350;18.664;2023-11-21T08:00:14;3.43;;;2.83;;
18320;SDS011;54904;54.350;18.664;2023-11-21T08:02:41;5.40;;;2.90;;
18320;SDS011;54904;54.350;18.664;2023-11-21T08:05:08;5.50;;;2.43;;
18320;SDS011;54904;54.350;18.664;2023-11-21T08:07:37;3.40;;;2.83;;
18320;SDS011;54904;54.350;18.664;2023-11-21T08:10:05;3.30;;;2.70;;
18320;SDS011;54904;54.350;18.664;2023-11-21T08:12:34;7.17;;;4.10;;
18320;SDS011;54904;54.350;18.664;2023-11-21T08:15:01;6.33;;;4.03;;
18320;SDS011;54904;54.350;18.664;2023-11-21T08:17:28;7.57;;;4.20;;
18320;SDS011;54904;54.350;18.664;2023-11-21T08:19:58;4.33;;;3.20;;
18320;SDS011;54904;54.350;18.664;2023-11-21T08:22:25;4.17;;;3.13;;
18320;SDS011;54904;54.350;18.664;2023-11-21T08:24:53;4.00;;;3.70;;
18320;SDS011;54904;54.350;18.664;2023-11-21T08:27:21;4.23;;;3.50;;
18320;SDS011;54904;54.350;18.664;2023-11-21T08:29:48;4.40;;;3.57;;
18320;SDS011;54904;54.350;18.664;2023-11-21T08:32:16;3.97;;;2.90;;
18320;SDS011;54904;54.350;18.664;2023-11-21T08:34:43;3.10;;;2.13;;
18320;SDS011;54904;54.350;18.664;2023-11-21T08:37:10;3.03;;;2.60;;
18320;SDS011;54904;54.350;18.664;2023-11-21T08:39:37;2.53;;;2.00;;
18320;SDS011;54904;54.350;18.664;2023-11-21T08:42:08;19.83;;;7.53;;
18320;SDS011;54904;54.350;18.664;2023-11-21T08:44:37;21.13;;;7.97;;
18320;SDS011;54904;54.350;18.664;2023-11-21T08:47:05;13.63;;;6.30;;
18320;SDS011;54904;54.350;18.664;2023-11-21T08:49:32;8.37;;;4.67;;
18320;SDS011;54904;54.350;18.664;2023-11-21T08:51:59;4.50;;;3.70;;
18320;SDS011;54904;54.350;18.664;2023-11-21T08:54:26;3.10;;;2.80;;
18320;SDS011;54904;54.350;18.664;2023-11-21T08:56:53;2.40;;;2.20;;
18320;SDS011;54904;54.350;18.664;2023-11-21T08:59:24;2.43;;;2.10;;
18320;SDS011;54904;54.350;18.664;2023-11-21T09:01:51;3.90;;;2.63;;
18320;SDS011;54904;54.350;18.664;2023-11-21T09:04:19;6.13;;;2.73;;
18320;SDS011;54904;54.350;18.664;2023-11-21T09:06:46;3.50;;;2.30;;
18320;SDS011;54904;54.350;18.664;2023-11-21T09:09:13;4.33;;;2.33;;
18320;SDS011;54904;54.350;18.664;2023-11-21T09:11:40;10.33;;;4.03;;
18320;SDS011;54904;54.350;18.664;2023-11-21T09:14:09;7.03;;;3.70;;
18320;SDS011;54904;54.350;18.664;2023-11-21T09:16:39;6.47;;;3.67;;
18320;SDS011;54904;54.350;18.664;2023-11-21T09:19:06;6.80;;;3.50;;
18320;SDS011;54904;54.350;18.664;2023-11-21T09:21:33;3.93;;;2.87;;
18320;SDS011;54904;54.350;18.664;2023-11-21T09:24:01;2.73;;;2.27;;
18320;SDS011;54904;54.350;18.664;2023-11-21T09:26:28;5.07;;;4.07;;
18320;SDS011;54904;54.350;18.664;2023-11-21T09:28:55;3.37;;;3.07;;
18320;SDS011;54904;54.350;18.664;2023-11-21T09:31:22;2.00;;;1.90;;
18320;SDS011;54904;54.350;18.664;2023-11-21T09:33:51;1.97;;;1.60;;
18320;SDS011;54904;54.350;18.664;2023-11-21T09:36:18;6.53;;;1.80;;
18320;SDS011;54904;54.350;18.664;2023-11-21T09:38:47;3.87;;;2.03;;
18320;SDS011;54904;54.350;18.664;2023-11-21T09:41:16;1.77;;;1.67;;
18320;SDS011;54904;54.350;18.664;2023-11-21T09:43:49;3.23;;;2.57;;
18320;SDS011;54904;54.350;18.664;2023-11-21T09:46:21;5.90;;;2.40;;
18320;SDS011;54904;54.350;18.664;2023-11-21T09:48:54;4.47;;;2.50;;
18320;SDS011;54904;54.350;18.664;2023-11-21T09:51:26;2.43;;;2.00;;
18320;SDS011;54904;54.350;18.664;2023-11-21T09:54:00;3.13;;;2.03;;
18320;SDS011;54904;54.350;18.664;2023-11-21T09:56:32;16.10;;;6.07;;
18320;SDS011;54904;54.350;18.664;2023-11-21T09:58:59;9.67;;;4.33;;
18320;SDS011;54904;54.350;18.664;2023-11-21T10:01:32;5.03;;;2.10;;
18320;SDS011;54904;54.350;18.664;2023-11-21T10:04:02;2.50;;;1.97;;
18320;SDS011;54904;54.350;18.664;2023-11-21T10:06:30;3.10;;;2.03;;
18320;SDS011;54904;54.350;18.664;2023-11-21T10:08:59;2.17;;;1.97;;
18320;SDS011;54904;54.350;18.664;2023-11-21T10:11:28;2.83;;;2.57;;
18320;SDS011;54904;54.350;18.664;2023-11-21T10:13:56;3.07;;;2.10;;
18320;SDS011;54904;54.350;18.664;2023-11-21T10:16:26;3.37;;;2.67;;
18320;SDS011;54904;54.350;18.664;2023-11-21T10:18:54;2.63;;;2.13;;
18320;SDS011;54904;54.350;18.664;2023-11-21T10:21:23;2.47;;;2.03;;
18320;SDS011;54904;54.350;18.664;2023-11-21T10:23:51;2.90;;;2.10;;
18320;SDS011;54904;54.350;18.664;2023-11-21T10:26:20;2.90;;;1.90;;
18320;SDS011;54904;54.350;18.664;2023-11-21T10:28:55;2.43;;;2.23;;
18320;SDS011;54904;54.350;18.664;2023-11-21T10:31:23;2.67;;;2.33;;
18320;SDS011;54904;54.350;18.664;2023-11-21T10:33:51;5.27;;;2.60;;
18320;SDS011;54904;54.350;18.664;2023-11-21T10:36:26;3.93;;;2.67;;
18320;SDS011;54904;54.350;18.664;2023-11-21T10:38:54;4.83;;;2.93;;
18320;SDS011;54904;54.350;18.664;2023-11-21T10:41:22;2.57;;;2.00;;
18320;SDS011;54904;54.350;18.664;2023-11-21T10:43:52;6.10;;;2.67;;
18320;SDS011;54904;54.350;18.664;2023-11-21T10:46:21;7.77;;;4.60;;
18320;SDS011;54904;54.350;18.664;2023-11-21T10:48:53;6.07;;;3.27;;
18320;SDS011;54904;54.350;18.664;2023-11-21T10:51:21;2.67;;;2.30;;
18320;SDS011;54904;54.350;18.664;2023-11-21T10:53:51;2.50;;;1.87;;
18320;SDS011;54904;54.350;18.664;2023-11-21T10:56:18;3.03;;;1.70;;
18320;SDS011;54904;54.350;18.664;2023-11-21T10:58:47;2.83;;;1.57;;
18320;SDS011;54904;54.350;18.664;2023-11-21T11:01:16;2.60;;;1.80;;
18320;SDS011;54904;54.350;18.664;2023-11-21T11:03:46;2.23;;;2.03;;
18320;SDS011;54904;54.350;18.664;2023-11-21T11:06:14;2.00;;;1.77;;
18320;SDS011;54904;54.350;18.664;2023-11-21T11:08:42;2.83;;;1.63;;
18320;SDS011;54904;54.350;18.664;2023-11-21T11:11:12;2.47;;;1.90;;
18320;SDS011;54904;54.350;18.664;2023-11-21T11:13:42;1.80;;;1.70;;
18320;SDS011;54904;54.350;18.664;2023-11-21T11:16:11;2.50;;;1.70;;
18320;SDS011;54904;54.350;18.664;2023-11-21T11:18:42;2.83;;;2.10;;
18320;SDS011;54904;54.350;18.664;2023-11-21T11:21:25;1.93;;;1.77;;
18320;SDS011;54904;54.350;18.664;2023-11-21T11:24:12;3.63;;;1.80;;
18320;SDS011;54904;54.350;18.664;2023-11-21T11:26:50;1.90;;;1.80;;
18320;SDS011;54904;54.350;18.664;2023-11-21T11:29:24;3.53;;;1.80;;
18320;SDS011;54904;54.350;18.664;2023-11-21T11:32:00;2.43;;;2.00;;
18320;SDS011;54904;54.350;18.664;2023-11-21T11:34:35;3.77;;;1.80;;
18320;SDS011;54904;54.350;18.664;2023-11-21T11:37:08;1.70;;;1.60;;
18320;SDS011;54904;54.350;18.664;2023-11-21T11:39:36;1.70;;;1.60;;
18320;SDS011;54904;54.350;18.664;2023-11-21T11:42:13;1.80;;;1.70;;
18320;SDS011;54904;54.350;18.664;2023-11-21T11:44:48;2.17;;;1.87;;
18320;SDS011;54904;54.350;18.664;2023-11-21T11:47:24;2.07;;;1.67;;
18320;SDS011;54904;54.350;18.664;2023-11-21T11:49:57;2.20;;;1.80;;
18320;SDS011;54904;54.350;18.664;2023-11-21T11:55:08;2.57;;;1.73;;
18320;SDS011;54904;54.350;18.664;2023-11-21T11:57:38;2.57;;;2.00;;
18320;SDS011;54904;54.350;18.664;2023-11-21T12:00:10;2.67;;;1.70;;
18320;SDS011;54904;54.350;18.664;2023-11-21T12:02:41;2.03;;;1.40;;
18320;SDS011;54904;54.350;18.664;2023-11-21T12:05:10;2.97;;;1.80;;
18320;SDS011;54904;54.350;18.664;2023-11-21T12:07:41;2.80;;;2.10;;
18320;SDS011;54904;54.350;18.664;2023-11-21T12:10:11;3.90;;;1.60;;
18320;SDS011;54904;54.350;18.664;2023-11-21T12:12:47;4.30;;;1.83;;
18320;SDS011;54904;54.350;18.664;2023-11-21T12:15:16;2.27;;;1.90;;
18320;SDS011;54904;54.350;18.664;2023-11-21T12:17:44;2.30;;;1.70;;
18320;SDS011;54904;54.350;18.664;2023-11-21T12:20:12;2.27;;;1.70;;
18320;SDS011;54904;54.350;18.664;2023-11-21T12:22:44;3.00;;;2.00;;
18320;SDS011;54904;54.350;18.664;2023-11-21T12:25:14;2.90;;;2.07;;
18320;SDS011;54904;54.350;18.664;2023-11-21T12:27:44;2.70;;;1.87;;
18320;SDS011;54904;54.350;18.664;2023-11-21T12:30:13;2.10;;;1.70;;
18320;SDS011;54904;54.350;18.664;2023-11-21T12:32:41;1.57;;;1.37;;
18320;SDS011;54904;54.350;18.664;2023-11-21T12:35:09;2.17;;;1.70;;
18320;SDS011;54904;54.350;18.664;2023-11-21T12:37:37;2.50;;;2.07;;
18320;SDS011;54904;54.350;18.664;2023-11-21T12:40:06;2.60;;;2.13;;
18320;SDS011;54904;54.350;18.664;2023-11-21T12:42:36;2.20;;;2.00;;
18320;SDS011;54904;54.350;18.664;2023-11-21T12:45:18;3.03;;;2.30;;
18320;SDS011;54904;54.350;18.664;2023-11-21T12:47:51;3.23;;;2.03;;
18320;SDS011;54904;54.350;18.664;2023-11-21T12:50:22;2.23;;;1.80;;
18320;SDS011;54904;54.350;18.664;2023-11-21T12:52:54;3.10;;;1.97;;
18320;SDS011;54904;54.350;18.664;2023-11-21T12:55:24;2.17;;;1.73;;
18320;SDS011;54904;54.350;18.664;2023-11-21T12:57:52;2.40;;;1.80;;
18320;SDS011;54904;54.350;18.664;2023-11-21T13:00:28;2.70;;;2.00;;
18320;SDS011;54904;54.350;18.664;2023-11-21T13:03:02;1.80;;;1.70;;
18320;SDS011;54904;54.350;18.664;2023-11-21T13:05:31;1.53;;;1.40;;
18320;SDS011;54904;54.350;18.664;2023-11-21T13:07:59;2.87;;;2.00;;
18320;SDS011;54904;54.350;18.664;2023-11-21T13:10:29;2.47;;;1.90;;
18320;SDS011;54904;54.350;18.664;2023-11-21T13:12:59;2.53;;;2.00;;
18320;SDS011;54904;54.350;18.664;2023-11-21T13:15:31;2.30;;;2.00;;
18320;SDS011;54904;54.350;18.664;2023-11-21T13:18:00;2.33;;;1.63;;
18320;SDS011;54904;54.350;18.664;2023-11-21T13:20:27;1.97;;;1.70;;
18320;SDS011;54904;54.350;18.664;2023-11-21T13:22:55;2.10;;;1.67;;
18320;SDS011;54904;54.350;18.664;2023-11-21T13:25:24;2.23;;;1.60;;
18320;SDS011;54904;54.350;18.664;2023-11-21T13:27:52;2.37;;;1.73;;
18320;SDS011;54904;54.350;18.664;2023-11-21T13:30:19;1.73;;;1.63;;
18320;SDS011;54904;54.350;18.664;2023-11-21T13:32:53;3.73;;;2.00;;
18320;SDS011;54904;54.350;18.664;2023-11-21T13:35:22;3.33;;;2.10;;
18320;SDS011;54904;54.350;18.664;2023-11-21T13:37:56;4.10;;;2.20;;
18320;SDS011;54904;54.350;18.664;2023-11-21T13:40:25;4.03;;;1.93;;
18320;SDS011;54904;54.350;18.664;2023-11-21T13:42:53;2.10;;;1.77;;
18320;SDS011;54904;54.350;18.664;2023-11-21T13:45:25;1.70;;;1.60;;
18320;SDS011;54904;54.350;18.664;2023-11-21T13:47:57;2.60;;;2.30;;
18320;SDS011;54904;54.350;18.664;2023-11-21T13:50:24;2.10;;;1.93;;
18320;SDS011;54904;54.350;18.664;2023-11-21T13:52:57;3.03;;;2.13;;
18320;SDS011;54904;54.350;18.664;2023-11-21T13:55:29;3.93;;;2.67;;
18320;SDS011;54904;54.350;18.664;2023-11-21T13:57:56;3.67;;;2.50;;
18320;SDS011;54904;54.350;18.664;2023-11-21T14:00:24;2.80;;;2.50;;
18320;SDS011;54904;54.350;18.664;2023-11-21T14:03:11;2.73;;;2.30;;
18320;SDS011;54904;54.350;18.664;2023-11-21T14:05:47;2.63;;;2.00;;
18320;SDS011;54904;54.350;18.664;2023-11-21T14:08:17;3.90;;;2.50;;
18320;SDS011;54904;54.350;18.664;2023-11-21T14:10:46;2.30;;;2.10;;
18320;SDS011;54904;54.350;18.664;2023-11-21T14:13:20;5.57;;;2.53;;
18320;SDS011;54904;54.350;18.664;2023-11-21T14:15:48;3.77;;;2.40;;
18320;SDS011;54904;54.350;18.664;2023-11-21T14:18:20;3.57;;;2.33;;
18320;SDS011;54904;54.350;18.664;2023-11-21T14:20:55;3.57;;;2.40;;
18320;SDS011;54904;54.350;18.664;2023-11-21T14:23:22;2.50;;;1.97;;
18320;SDS011;54904;54.350;18.664;2023-11-21T14:25:50;2.43;;;1.83;;
18320;SDS011;54904;54.350;18.664;2023-11-21T14:28:17;1.60;;;1.50;;
18320;SDS011;54904;54.350;18.664;2023-11-21T14:30:44;2.00;;;1.60;;
18320;SDS011;54904;54.350;18.664;2023-11-21T14:33:12;1.80;;;1.67;;
18320;SDS011;54904;54.350;18.664;2023-11-21T14:35:43;6.87;;;2.00;;
18320;SDS011;54904;54.350;18.664;2023-11-21T14:38:10;2.90;;;2.13;;
18320;SDS011;54904;54.350;18.664;2023-11-21T14:40:39;4.43;;;2.37;;
18320;SDS011;54904;54.350;18.664;2023-11-21T14:43:07;6.13;;;2.17;;
18320;SDS011;54904;54.350;18.664;2023-11-21T14:45:34;3.40;;;1.93;;